sensor_id;sensor_type;location;lat;lon;timestamp;temperature;humidity
69324;DHT22;56470;47.350;8.718;2023-03-30T00:01:05;13.82;65.34
69324;DHT22;56470;47.350;8.718;2023-03-30T00:03:34;13.84;65.33
69324;DHT22;56470;47.350;8.718;2023-03-30T00:06:03;13.82;65.27
69324;DHT22;56470;47.350;8.718;2023-03-30T00:08:30;13.82;65.19
69324;DHT22;56470;47.350;8.718;2023-03-30T00:11:09;13.81;65.19
69324;DHT22;56470;47.350;8.718;2023-03-30T00:13:36;13.81;65.14
69324;DHT22;56470;47.350;8.718;2023-03-30T00:16:03;13.82;65.11
69324;DHT22;56470;47.350;8.718;2023-03-30T00:18:28;13.82;65.06
69324;DHT22;56470;47.350;8.718;2023-03-30T00:20:54;13.87;65.00
69324;DHT22;56470;47.350;8.718;2023-03-30T00:23:21;13.87;64.89
69324;DHT22;56470;47.350;8.718;2023-03-30T00:25:46;13.88;64.84
69324;DHT22;56470;47.350;8.718;2023-03-30T00:28:12;13.91;64.79
69324;DHT22;56470;47.350;8.718;2023-03-30T00:30:37;13.91;64.75
69324;DHT22;56470;47.350;8.718;2023-03-30T00:33:02;13.92;64.73
69324;DHT22;56470;47.350;8.718;2023-03-30T00:35:28;13.89;64.69
69324;DHT22;56470;47.350;8.718;2023-03-30T00:37:58;13.91;64.63
69324;DHT22;56470;47.350;8.718;2023-03-30T00:40:28;13.89;64.63
69324;DHT22;56470;47.350;8.718;2023-03-30T00:42:59;13.89;64.52
69324;DHT22;56470;47.350;8.718;2023-03-30T00:45:26;13.85;64.52
69324;DHT22;56470;47.350;8.718;2023-03-30T00:48:06;13.88;64.51
69324;DHT22;56470;47.350;8.718;2023-03-30T00:50:38;13.82;64.57
69324;DHT22;56470;47.350;8.718;2023-03-30T00:53:19;13.81;64.62
69324;DHT22;56470;47.350;8.718;2023-03-30T00:55:46;13.84;64.52
69324;DHT22;56470;47.350;8.718;2023-03-30T00:58:14;13.84;64.47
69324;DHT22;56470;47.350;8.718;2023-03-30T01:00:42;13.84;64.43
69324;DHT22;56470;47.350;8.718;2023-03-30T01:03:29;13.79;64.52
69324;DHT22;56470;47.350;8.718;2023-03-30T01:05:57;13.79;64.42
69324;DHT22;56470;47.350;8.718;2023-03-30T01:08:24;13.84;64.37
69324;DHT22;56470;47.350;8.718;2023-03-30T01:10:56;13.82;64.38
69324;DHT22;56470;47.350;8.718;2023-03-30T01:13:22;13.81;64.37
69324;DHT22;56470;47.350;8.718;2023-03-30T01:15:59;13.75;64.64
69324;DHT22;56470;47.350;8.718;2023-03-30T01:18:33;13.73;64.52
69324;DHT22;56470;47.350;8.718;2023-03-30T01:21:16;13.71;64.52
69324;DHT22;56470;47.350;8.718;2023-03-30T01:26:52;13.71;64.54
69324;DHT22;56470;47.350;8.718;2023-03-30T01:29:36;13.75;64.47
69324;DHT22;56470;47.350;8.718;2023-03-30T01:32:33;13.73;64.42
69324;DHT22;56470;47.350;8.718;2023-03-30T01:43:33;13.82;64.31
69324;DHT22;56470;47.350;8.718;2023-03-30T01:46:26;13.81;64.43
69324;DHT22;56470;47.350;8.718;2023-03-30T01:51:27;13.84;64.25
69324;DHT22;56470;47.350;8.718;2023-03-30T01:54:04;13.84;64.23
69324;DHT22;56470;47.350;8.718;2023-03-30T01:56:38;13.79;64.23
69324;DHT22;56470;47.350;8.718;2023-03-30T01:59:25;13.79;64.31
69324;DHT22;56470;47.350;8.718;2023-03-30T02:01:54;13.82;64.21
69324;DHT22;56470;47.350;8.718;2023-03-30T02:04:25;13.91;64.24
69324;DHT22;56470;47.350;8.718;2023-03-30T02:06:56;13.92;64.21
69324;DHT22;56470;47.350;8.718;2023-03-30T02:09:25;13.95;64.19
69324;DHT22;56470;47.350;8.718;2023-03-30T02:11:51;13.94;64.12
69324;DHT22;56470;47.350;8.718;2023-03-30T02:14:21;13.92;64.29
69324;DHT22;56470;47.350;8.718;2023-03-30T02:16:49;13.92;64.60
69324;DHT22;56470;47.350;8.718;2023-03-30T02:19:17;13.89;64.91
69324;DHT22;56470;47.350;8.718;2023-03-30T02:21:43;13.88;64.97
69324;DHT22;56470;47.350;8.718;2023-03-30T02:24:16;13.82;65.56
69324;DHT22;56470;47.350;8.718;2023-03-30T02:26:50;13.84;65.88
69324;DHT22;56470;47.350;8.718;2023-03-30T02:29:17;13.87;65.92
69324;DHT22;56470;47.350;8.718;2023-03-30T02:31:44;13.85;66.16
69324;DHT22;56470;47.350;8.718;2023-03-30T02:39:41;13.87;66.87
69324;DHT22;56470;47.350;8.718;2023-03-30T02:42:25;13.91;66.36
69324;DHT22;56470;47.350;8.718;2023-03-30T02:53:10;14.04;66.21
69324;DHT22;56470;47.350;8.718;2023-03-30T02:55:58;14.01;66.36
69324;DHT22;56470;47.350;8.718;2023-03-30T03:01:32;14.04;66.17
69324;DHT22;56470;47.350;8.718;2023-03-30T03:04:01;14.04;66.08
69324;DHT22;56470;47.350;8.718;2023-03-30T03:06:27;14.00;66.74
69324;DHT22;56470;47.350;8.718;2023-03-30T03:08:54;14.00;66.39
69324;DHT22;56470;47.350;8.718;2023-03-30T03:11:20;13.85;66.85
69324;DHT22;56470;47.350;8.718;2023-03-30T03:13:45;13.77;67.52
69324;DHT22;56470;47.350;8.718;2023-03-30T03:16:10;13.67;67.63
69324;DHT22;56470;47.350;8.718;2023-03-30T03:18:36;13.66;67.47
69324;DHT22;56470;47.350;8.718;2023-03-30T03:21:09;13.67;67.55
69324;DHT22;56470;47.350;8.718;2023-03-30T03:23:36;13.66;67.29
69324;DHT22;56470;47.350;8.718;2023-03-30T03:26:02;13.68;67.07
69324;DHT22;56470;47.350;8.718;2023-03-30T03:28:29;13.75;66.83
69324;DHT22;56470;47.350;8.718;2023-03-30T03:30:54;13.79;66.56
69324;DHT22;56470;47.350;8.718;2023-03-30T03:33:21;13.87;66.33
69324;DHT22;56470;47.350;8.718;2023-03-30T03:35:46;13.92;66.18
69324;DHT22;56470;47.350;8.718;2023-03-30T03:38:12;13.98;66.04
69324;DHT22;56470;47.350;8.718;2023-03-30T03:40:38;14.00;66.02
69324;DHT22;56470;47.350;8.718;2023-03-30T03:43:04;14.05;66.06
69324;DHT22;56470;47.350;8.718;2023-03-30T03:45:29;14.02;65.96
69324;DHT22;56470;47.350;8.718;2023-03-30T03:47:55;14.01;65.87
69324;DHT22;56470;47.350;8.718;2023-03-30T03:50:20;13.97;65.97
69324;DHT22;56470;47.350;8.718;2023-03-30T03:52:46;13.94;65.88
69324;DHT22;56470;47.350;8.718;2023-03-30T03:55:11;13.89;65.87
69324;DHT22;56470;47.350;8.718;2023-03-30T03:57:37;13.84;66.22
69324;DHT22;56470;47.350;8.718;2023-03-30T04:00:04;13.82;66.12
69324;DHT22;56470;47.350;8.718;2023-03-30T04:02:39;13.81;66.12
69324;DHT22;56470;47.350;8.718;2023-03-30T04:05:05;13.77;66.22
69324;DHT22;56470;47.350;8.718;2023-03-30T04:07:31;13.77;66.30
69324;DHT22;56470;47.350;8.718;2023-03-30T04:09:58;13.77;66.25
69324;DHT22;56470;47.350;8.718;2023-03-30T04:12:23;13.79;66.20
69324;DHT22;56470;47.350;8.718;2023-03-30T04:14:48;13.79;66.23
69324;DHT22;56470;47.350;8.718;2023-03-30T04:17:14;13.79;66.46
69324;DHT22;56470;47.350;8.718;2023-03-30T04:19:39;13.81;66.23
69324;DHT22;56470;47.350;8.718;2023-03-30T04:22:06;13.79;66.27
69324;DHT22;56470;47.350;8.718;2023-03-30T04:24:31;13.82;66.22
69324;DHT22;56470;47.350;8.718;2023-03-30T04:26:59;13.84;66.07
69324;DHT22;56470;47.350;8.718;2023-03-30T04:29:25;13.84;66.10
69324;DHT22;56470;47.350;8.718;2023-03-30T04:31:50;13.81;66.06
69324;DHT22;56470;47.350;8.718;2023-03-30T04:34:16;13.81;66.03
69324;DHT22;56470;47.350;8.718;2023-03-30T04:36:46;13.79;66.05
69324;DHT22;56470;47.350;8.718;2023-03-30T04:39:11;13.79;65.90
69324;DHT22;56470;47.350;8.718;2023-03-30T04:41:38;13.84;65.81
69324;DHT22;56470;47.350;8.718;2023-03-30T04:44:08;13.84;65.96
69324;DHT22;56470;47.350;8.718;2023-03-30T04:46:34;13.82;65.86
69324;DHT22;56470;47.350;8.718;2023-03-30T04:49:00;13.82;65.74
69324;DHT22;56470;47.350;8.718;2023-03-30T04:51:26;13.84;65.73
69324;DHT22;56470;47.350;8.718;2023-03-30T04:53:51;13.84;65.72
69324;DHT22;56470;47.350;8.718;2023-03-30T04:56:20;13.85;65.66
69324;DHT22;56470;47.350;8.718;2023-03-30T04:58:46;13.88;65.58
69324;DHT22;56470;47.350;8.718;2023-03-30T05:01:11;13.89;65.51
69324;DHT22;56470;47.350;8.718;2023-03-30T05:03:37;13.94;65.45
69324;DHT22;56470;47.350;8.718;2023-03-30T05:06:02;14.00;65.39
69324;DHT22;56470;47.350;8.718;2023-03-30T05:08:28;14.01;65.33
69324;DHT22;56470;47.350;8.718;2023-03-30T05:10:53;14.06;65.32
69324;DHT22;56470;47.350;8.718;2023-03-30T05:13:18;14.11;65.34
69324;DHT22;56470;47.350;8.718;2023-03-30T05:15:44;14.18;65.30
69324;DHT22;56470;47.350;8.718;2023-03-30T05:18:09;14.21;65.29
69324;DHT22;56470;47.350;8.718;2023-03-30T05:20:35;14.19;65.24
69324;DHT22;56470;47.350;8.718;2023-03-30T05:23:01;14.12;65.15
69324;DHT22;56470;47.350;8.718;2023-03-30T05:25:26;14.11;65.20
69324;DHT22;56470;47.350;8.718;2023-03-30T05:27:51;14.12;65.30
69324;DHT22;56470;47.350;8.718;2023-03-30T05:30:17;14.09;65.21
69324;DHT22;56470;47.350;8.718;2023-03-30T05:32:42;14.12;65.18
69324;DHT22;56470;47.350;8.718;2023-03-30T05:35:07;14.12;65.09
69324;DHT22;56470;47.350;8.718;2023-03-30T05:37:33;14.11;64.97
69324;DHT22;56470;47.350;8.718;2023-03-30T05:39:58;14.09;64.92
69324;DHT22;56470;47.350;8.718;2023-03-30T05:42:23;14.12;65.02
69324;DHT22;56470;47.350;8.718;2023-03-30T05:44:49;14.16;64.93
69324;DHT22;56470;47.350;8.718;2023-03-30T05:47:14;14.19;64.73
69324;DHT22;56470;47.350;8.718;2023-03-30T05:49:41;14.19;64.72
69324;DHT22;56470;47.350;8.718;2023-03-30T05:52:06;14.21;64.69
69324;DHT22;56470;47.350;8.718;2023-03-30T05:54:31;14.25;64.61
69324;DHT22;56470;47.350;8.718;2023-03-30T05:56:57;14.29;64.57
69324;DHT22;56470;47.350;8.718;2023-03-30T05:59:22;14.32;64.59
69324;DHT22;56470;47.350;8.718;2023-03-30T06:01:48;14.36;64.63
69324;DHT22;56470;47.350;8.718;2023-03-30T06:04:13;14.39;64.61
69324;DHT22;56470;47.350;8.718;2023-03-30T06:06:40;14.32;64.75
69324;DHT22;56470;47.350;8.718;2023-03-30T06:09:06;14.29;64.90
69324;DHT22;56470;47.350;8.718;2023-03-30T06:11:31;14.22;64.85
69324;DHT22;56470;47.350;8.718;2023-03-30T06:13:57;14.19;64.98
69324;DHT22;56470;47.350;8.718;2023-03-30T06:16:23;14.13;64.92
69324;DHT22;56470;47.350;8.718;2023-03-30T06:18:48;14.08;65.01
69324;DHT22;56470;47.350;8.718;2023-03-30T06:21:13;14.08;64.90
69324;DHT22;56470;47.350;8.718;2023-03-30T06:23:39;14.01;65.11
69324;DHT22;56470;47.350;8.718;2023-03-30T06:26:07;13.98;65.18
69324;DHT22;56470;47.350;8.718;2023-03-30T06:28:32;13.94;65.59
69324;DHT22;56470;47.350;8.718;2023-03-30T06:30:58;13.91;65.47
69324;DHT22;56470;47.350;8.718;2023-03-30T06:33:25;13.88;65.62
69324;DHT22;56470;47.350;8.718;2023-03-30T06:35:52;13.87;65.66
69324;DHT22;56470;47.350;8.718;2023-03-30T06:38:21;13.85;65.79
69324;DHT22;56470;47.350;8.718;2023-03-30T06:40:47;13.87;65.66
69324;DHT22;56470;47.350;8.718;2023-03-30T06:43:21;13.88;65.60
69324;DHT22;56470;47.350;8.718;2023-03-30T06:45:53;13.94;65.44
69324;DHT22;56470;47.350;8.718;2023-03-30T06:48:20;14.00;65.30
69324;DHT22;56470;47.350;8.718;2023-03-30T06:50:48;14.01;65.17
69324;DHT22;56470;47.350;8.718;2023-03-30T06:53:14;14.06;65.10
69324;DHT22;56470;47.350;8.718;2023-03-30T06:55:40;14.09;64.99
69324;DHT22;56470;47.350;8.718;2023-03-30T06:58:05;14.12;64.90
69324;DHT22;56470;47.350;8.718;2023-03-30T07:00:31;14.18;64.78
69324;DHT22;56470;47.350;8.718;2023-03-30T07:02:56;14.21;64.62
69324;DHT22;56470;47.350;8.718;2023-03-30T07:05:22;14.28;64.56
69324;DHT22;56470;47.350;8.718;2023-03-30T07:07:53;14.29;64.64
69324;DHT22;56470;47.350;8.718;2023-03-30T07:10:19;14.33;64.73
69324;DHT22;56470;47.350;8.718;2023-03-30T07:12:44;14.37;64.98
69324;DHT22;56470;47.350;8.718;2023-03-30T07:15:10;14.39;65.11
69324;DHT22;56470;47.350;8.718;2023-03-30T07:17:36;14.40;65.18
69324;DHT22;56470;47.350;8.718;2023-03-30T07:20:02;14.39;65.38
69324;DHT22;56470;47.350;8.718;2023-03-30T07:22:28;14.39;65.45
69324;DHT22;56470;47.350;8.718;2023-03-30T07:24:53;14.36;65.57
69324;DHT22;56470;47.350;8.718;2023-03-30T07:27:19;14.39;65.66
69324;DHT22;56470;47.350;8.718;2023-03-30T07:29:45;14.37;65.80
69324;DHT22;56470;47.350;8.718;2023-03-30T07:32:10;14.37;65.92
69324;DHT22;56470;47.350;8.718;2023-03-30T07:34:35;14.41;65.86
69324;DHT22;56470;47.350;8.718;2023-03-30T07:37:01;14.43;65.89
69324;DHT22;56470;47.350;8.718;2023-03-30T07:39:27;14.47;65.95
69324;DHT22;56470;47.350;8.718;2023-03-30T07:41:53;14.49;65.88
69324;DHT22;56470;47.350;8.718;2023-03-30T07:44:18;14.53;65.95
69324;DHT22;56470;47.350;8.718;2023-03-30T07:46:44;14.55;66.03
69324;DHT22;56470;47.350;8.718;2023-03-30T07:49:10;14.56;66.08
69324;DHT22;56470;47.350;8.718;2023-03-30T07:51:35;14.51;66.49
69324;DHT22;56470;47.350;8.718;2023-03-30T07:54:00;14.46;66.80
69324;DHT22;56470;47.350;8.718;2023-03-30T07:56:26;14.44;66.94
69324;DHT22;56470;47.350;8.718;2023-03-30T07:58:51;14.44;67.03
69324;DHT22;56470;47.350;8.718;2023-03-30T08:01:17;14.46;67.02
69324;DHT22;56470;47.350;8.718;2023-03-30T08:03:43;14.46;66.94
69324;DHT22;56470;47.350;8.718;2023-03-30T08:06:09;14.46;66.87
69324;DHT22;56470;47.350;8.718;2023-03-30T08:08:35;14.49;67.01
69324;DHT22;56470;47.350;8.718;2023-03-30T08:11:03;14.49;67.01
69324;DHT22;56470;47.350;8.718;2023-03-30T08:13:29;14.50;67.12
69324;DHT22;56470;47.350;8.718;2023-03-30T08:15:57;14.50;67.22
69324;DHT22;56470;47.350;8.718;2023-03-30T08:18:22;14.55;67.23
69324;DHT22;56470;47.350;8.718;2023-03-30T08:20:50;14.60;66.98
69324;DHT22;56470;47.350;8.718;2023-03-30T08:23:17;14.66;66.85
69324;DHT22;56470;47.350;8.718;2023-03-30T08:25:43;14.71;66.71
69324;DHT22;56470;47.350;8.718;2023-03-30T08:28:09;14.75;66.61
69324;DHT22;56470;47.350;8.718;2023-03-30T08:30:35;14.83;66.42
69324;DHT22;56470;47.350;8.718;2023-03-30T08:33:00;14.83;66.37
69324;DHT22;56470;47.350;8.718;2023-03-30T08:35:26;14.89;66.02
69324;DHT22;56470;47.350;8.718;2023-03-30T08:37:51;14.92;65.77
69324;DHT22;56470;47.350;8.718;2023-03-30T08:40:18;14.99;65.64
69324;DHT22;56470;47.350;8.718;2023-03-30T08:45:42;15.08;65.63
69324;DHT22;56470;47.350;8.718;2023-03-30T08:48:19;15.09;65.61
69324;DHT22;56470;47.350;8.718;2023-03-30T08:50:58;15.13;65.48
69324;DHT22;56470;47.350;8.718;2023-03-30T08:53:26;15.15;65.32
69324;DHT22;56470;47.350;8.718;2023-03-30T08:56:00;15.19;65.16
69324;DHT22;56470;47.350;8.718;2023-03-30T08:58:39;15.20;65.02
69324;DHT22;56470;47.350;8.718;2023-03-30T09:01:22;15.26;64.88
69324;DHT22;56470;47.350;8.718;2023-03-30T09:04:08;15.30;63.89
69324;DHT22;56470;47.350;8.718;2023-03-30T09:06:46;15.36;64.22
69324;DHT22;56470;47.350;8.718;2023-03-30T09:09:17;15.47;64.20
69324;DHT22;56470;47.350;8.718;2023-03-30T09:11:43;15.50;63.92
69324;DHT22;56470;47.350;8.718;2023-03-30T09:14:40;15.54;63.18
69324;DHT22;56470;47.350;8.718;2023-03-30T09:17:13;15.60;63.69
69324;DHT22;56470;47.350;8.718;2023-03-30T09:19:56;15.61;63.40
69324;DHT22;56470;47.350;8.718;2023-03-30T09:22:30;15.63;63.42
69324;DHT22;56470;47.350;8.718;2023-03-30T09:24:57;15.64;63.44
69324;DHT22;56470;47.350;8.718;2023-03-30T09:29:56;15.63;63.27
69324;DHT22;56470;47.350;8.718;2023-03-30T09:32:39;15.61;63.19
69324;DHT22;56470;47.350;8.718;2023-03-30T09:35:13;15.63;63.32
69324;DHT22;56470;47.350;8.718;2023-03-30T09:37:39;15.61;63.28
69324;DHT22;56470;47.350;8.718;2023-03-30T09:40:40;15.57;63.01
69324;DHT22;56470;47.350;8.718;2023-03-30T09:43:33;15.54;63.10
69324;DHT22;56470;47.350;8.718;2023-03-30T09:46:04;15.49;63.14
69324;DHT22;56470;47.350;8.718;2023-03-30T09:48:37;15.43;63.16
69324;DHT22;56470;47.350;8.718;2023-03-30T09:51:13;15.39;62.96
69324;DHT22;56470;47.350;8.718;2023-03-30T09:53:42;15.32;63.27
69324;DHT22;56470;47.350;8.718;2023-03-30T09:56:15;15.29;63.34
69324;DHT22;56470;47.350;8.718;2023-03-30T09:58:41;15.23;63.57
69324;DHT22;56470;47.350;8.718;2023-03-30T10:01:09;15.18;63.72
69324;DHT22;56470;47.350;8.718;2023-03-30T10:03:42;15.09;63.89
69324;DHT22;56470;47.350;8.718;2023-03-30T10:06:10;15.03;64.13
69324;DHT22;56470;47.350;8.718;2023-03-30T10:08:49;14.99;64.76
69324;DHT22;56470;47.350;8.718;2023-03-30T10:11:19;14.87;64.96
69324;DHT22;56470;47.350;8.718;2023-03-30T10:13:48;14.77;65.33
69324;DHT22;56470;47.350;8.718;2023-03-30T10:16:27;14.68;66.67
69324;DHT22;56470;47.350;8.718;2023-03-30T10:18:58;14.60;66.35
69324;DHT22;56470;47.350;8.718;2023-03-30T10:21:35;14.55;66.99
69324;DHT22;56470;47.350;8.718;2023-03-30T10:24:17;14.46;67.40
69324;DHT22;56470;47.350;8.718;2023-03-30T10:26:47;14.41;68.33
69324;DHT22;56470;47.350;8.718;2023-03-30T10:29:16;14.33;68.64
69324;DHT22;56470;47.350;8.718;2023-03-30T10:31:45;14.30;68.59
69324;DHT22;56470;47.350;8.718;2023-03-30T10:34:19;14.26;69.44
69324;DHT22;56470;47.350;8.718;2023-03-30T10:36:50;14.26;69.09
69324;DHT22;56470;47.350;8.718;2023-03-30T10:39:23;14.28;69.58
69324;DHT22;56470;47.350;8.718;2023-03-30T10:41:50;14.26;69.46
69324;DHT22;56470;47.350;8.718;2023-03-30T10:44:34;14.23;70.95
69324;DHT22;56470;47.350;8.718;2023-03-30T10:47:15;14.26;70.13
69324;DHT22;56470;47.350;8.718;2023-03-30T10:50:08;14.28;69.97
69324;DHT22;56470;47.350;8.718;2023-03-30T10:55:47;14.23;69.62
69324;DHT22;56470;47.350;8.718;2023-03-30T10:58:36;14.21;70.92
69324;DHT22;56470;47.350;8.718;2023-03-30T11:04:02;14.26;69.94
69324;DHT22;56470;47.350;8.718;2023-03-30T11:06:34;14.28;70.23
69324;DHT22;56470;47.350;8.718;2023-03-30T11:09:04;14.29;70.04
69324;DHT22;56470;47.350;8.718;2023-03-30T11:11:48;14.29;71.54
69324;DHT22;56470;47.350;8.718;2023-03-30T11:17:04;14.34;70.35
69324;DHT22;56470;47.350;8.718;2023-03-30T11:19:39;14.40;70.26
69324;DHT22;56470;47.350;8.718;2023-03-30T11:25:29;14.44;70.14
69324;DHT22;56470;47.350;8.718;2023-03-30T11:30:38;14.59;69.94
69324;DHT22;56470;47.350;8.718;2023-03-30T11:33:17;14.64;70.06
69324;DHT22;56470;47.350;8.718;2023-03-30T11:35:47;14.70;69.64
69324;DHT22;56470;47.350;8.718;2023-03-30T11:38:28;14.70;69.91
69324;DHT22;56470;47.350;8.718;2023-03-30T11:40:57;14.73;69.57
69324;DHT22;56470;47.350;8.718;2023-03-30T11:43:28;14.75;69.49
69324;DHT22;56470;47.350;8.718;2023-03-30T11:49:02;14.84;69.87
69324;DHT22;56470;47.350;8.718;2023-03-30T12:00:24;15.01;68.69
69324;DHT22;56470;47.350;8.718;2023-03-30T12:03:39;15.03;68.50
69324;DHT22;56470;47.350;8.718;2023-03-30T12:05:43;15.05;68.47
69324;DHT22;56470;47.350;8.718;2023-03-30T12:08:39;15.02;68.82
69324;DHT22;56470;47.350;8.718;2023-03-30T12:11:25;15.06;68.63
69324;DHT22;56470;47.350;8.718;2023-03-30T12:13:54;15.12;68.38
69324;DHT22;56470;47.350;8.718;2023-03-30T12:16:32;15.13;68.59
69324;DHT22;56470;47.350;8.718;2023-03-30T12:19:12;15.19;68.37
69324;DHT22;56470;47.350;8.718;2023-03-30T12:21:50;15.20;68.33
69324;DHT22;56470;47.350;8.718;2023-03-30T12:24:46;15.23;68.16
69324;DHT22;56470;47.350;8.718;2023-03-30T12:27:13;15.26;67.85
69324;DHT22;56470;47.350;8.718;2023-03-30T12:30:18;15.20;68.04
69324;DHT22;56470;47.350;8.718;2023-03-30T12:33:16;15.20;68.02
69324;DHT22;56470;47.350;8.718;2023-03-30T12:38:20;15.15;67.60
69324;DHT22;56470;47.350;8.718;2023-03-30T12:41:04;15.15;67.07
69324;DHT22;56470;47.350;8.718;2023-03-30T12:44:02;15.06;66.46
69324;DHT22;56470;47.350;8.718;2023-03-30T12:52:12;15.01;67.38
69324;DHT22;56470;47.350;8.718;2023-03-30T12:54:58;14.96;67.36
69324;DHT22;56470;47.350;8.718;2023-03-30T13:00:27;14.75;68.24
69324;DHT22;56470;47.350;8.718;2023-03-30T13:05:41;14.64;68.36
69324;DHT22;56470;47.350;8.718;2023-03-30T13:08:31;14.60;69.46
69324;DHT22;56470;47.350;8.718;2023-03-30T13:11:17;14.57;68.93
69324;DHT22;56470;47.350;8.718;2023-03-30T13:13:59;14.44;68.22
69324;DHT22;56470;47.350;8.718;2023-03-30T13:22:26;14.21;68.49
69324;DHT22;56470;47.350;8.718;2023-03-30T13:27:36;14.15;67.69
69324;DHT22;56470;47.350;8.718;2023-03-30T13:40:55;13.94;66.41
69324;DHT22;56470;47.350;8.718;2023-03-30T13:46:58;14.00;66.84
69324;DHT22;56470;47.350;8.718;2023-03-30T13:52:08;13.94;66.28
69324;DHT22;56470;47.350;8.718;2023-03-30T13:54:38;13.98;66.37
69324;DHT22;56470;47.350;8.718;2023-03-30T13:57:11;13.98;65.99
69324;DHT22;56470;47.350;8.718;2023-03-30T13:59:41;14.01;66.00
69324;DHT22;56470;47.350;8.718;2023-03-30T14:02:14;14.00;66.09
69324;DHT22;56470;47.350;8.718;2023-03-30T14:04:41;14.01;65.90
69324;DHT22;56470;47.350;8.718;2023-03-30T14:07:17;14.05;65.74
69324;DHT22;56470;47.350;8.718;2023-03-30T14:10:00;14.08;65.54
69324;DHT22;56470;47.350;8.718;2023-03-30T14:12:25;14.09;65.58
69324;DHT22;56470;47.350;8.718;2023-03-30T14:14:51;14.13;65.48
69324;DHT22;56470;47.350;8.718;2023-03-30T14:17:22;14.18;65.48
69324;DHT22;56470;47.350;8.718;2023-03-30T14:20:06;14.13;65.17
69324;DHT22;56470;47.350;8.718;2023-03-30T14:22:39;14.19;65.33
69324;DHT22;56470;47.350;8.718;2023-03-30T14:25:22;14.19;64.32
69324;DHT22;56470;47.350;8.718;2023-03-30T14:27:47;14.21;64.59
69324;DHT22;56470;47.350;8.718;2023-03-30T14:30:26;14.22;63.99
69324;DHT22;56470;47.350;8.718;2023-03-30T14:33:13;14.28;63.25
69324;DHT22;56470;47.350;8.718;2023-03-30T14:35:50;14.34;64.07
69324;DHT22;56470;47.350;8.718;2023-03-30T14:40:46;14.50;64.15
69324;DHT22;56470;47.350;8.718;2023-03-30T14:43:15;14.59;64.05
69324;DHT22;56470;47.350;8.718;2023-03-30T14:45:43;14.60;63.66
69324;DHT22;56470;47.350;8.718;2023-03-30T14:48:26;14.68;63.31
69324;DHT22;56470;47.350;8.718;2023-03-30T14:50:52;14.71;63.38
69324;DHT22;56470;47.350;8.718;2023-03-30T14:53:22;14.74;63.56
69324;DHT22;56470;47.350;8.718;2023-03-30T14:55:49;14.78;63.26
69324;DHT22;56470;47.350;8.718;2023-03-30T14:58:16;14.78;63.14
69324;DHT22;56470;47.350;8.718;2023-03-30T15:00:42;14.81;62.82
69324;DHT22;56470;47.350;8.718;2023-03-30T15:03:08;14.81;63.22
69324;DHT22;56470;47.350;8.718;2023-03-30T15:05:36;14.95;63.68
69324;DHT22;56470;47.350;8.718;2023-03-30T15:08:03;15.16;63.28
69324;DHT22;56470;47.350;8.718;2023-03-30T15:10:34;15.25;62.31
69324;DHT22;56470;47.350;8.718;2023-03-30T15:13:01;15.36;62.33
69324;DHT22;56470;47.350;8.718;2023-03-30T15:15:30;15.44;62.34
69324;DHT22;56470;47.350;8.718;2023-03-30T15:17:55;15.51;62.01
69324;DHT22;56470;47.350;8.718;2023-03-30T15:20:24;15.60;62.11
69324;DHT22;56470;47.350;8.718;2023-03-30T15:22:51;15.61;62.07
69324;DHT22;56470;47.350;8.718;2023-03-30T15:25:20;15.65;62.14
69324;DHT22;56470;47.350;8.718;2023-03-30T15:30:40;15.75;60.97
69324;DHT22;56470;47.350;8.718;2023-03-30T15:33:19;15.77;60.59
69324;DHT22;56470;47.350;8.718;2023-03-30T15:35:44;15.82;61.55
69324;DHT22;56470;47.350;8.718;2023-03-30T15:40:41;15.84;60.98
69324;DHT22;56470;47.350;8.718;2023-03-30T15:43:27;15.84;60.63
69324;DHT22;56470;47.350;8.718;2023-03-30T15:46:07;15.90;60.99
69324;DHT22;56470;47.350;8.718;2023-03-30T15:48:38;15.88;61.18
69324;DHT22;56470;47.350;8.718;2023-03-30T15:51:10;15.92;60.58
69324;DHT22;56470;47.350;8.718;2023-03-30T15:53:45;15.97;60.56
69324;DHT22;56470;47.350;8.718;2023-03-30T15:56:20;15.98;60.01
69324;DHT22;56470;47.350;8.718;2023-03-30T15:58:47;15.99;60.53
69324;DHT22;56470;47.350;8.718;2023-03-30T16:01:14;16.04;60.45
69324;DHT22;56470;47.350;8.718;2023-03-30T16:03:48;16.02;60.19
69324;DHT22;56470;47.350;8.718;2023-03-30T16:06:15;16.02;60.37
69324;DHT22;56470;47.350;8.718;2023-03-30T16:08:40;16.02;60.29
69324;DHT22;56470;47.350;8.718;2023-03-30T16:11:10;16.04;59.99
69324;DHT22;56470;47.350;8.718;2023-03-30T16:13:42;16.02;59.85
69324;DHT22;56470;47.350;8.718;2023-03-30T16:16:08;16.02;59.82
69324;DHT22;56470;47.350;8.718;2023-03-30T16:18:35;16.01;59.78
69324;DHT22;56470;47.350;8.718;2023-03-30T16:21:01;15.99;59.87
69324;DHT22;56470;47.350;8.718;2023-03-30T16:23:26;15.98;59.80
69324;DHT22;56470;47.350;8.718;2023-03-30T16:25:52;15.94;59.87
69324;DHT22;56470;47.350;8.718;2023-03-30T16:28:17;15.87;59.91
69324;DHT22;56470;47.350;8.718;2023-03-30T16:30:46;15.75;59.19
69324;DHT22;56470;47.350;8.718;2023-03-30T16:33:13;15.74;59.27
69324;DHT22;56470;47.350;8.718;2023-03-30T16:35:38;15.74;59.57
69324;DHT22;56470;47.350;8.718;2023-03-30T16:38:03;15.74;59.41
69324;DHT22;56470;47.350;8.718;2023-03-30T16:40:32;15.74;59.30
69324;DHT22;56470;47.350;8.718;2023-03-30T16:42:58;15.73;59.09
69324;DHT22;56470;47.350;8.718;2023-03-30T16:45:24;15.71;58.60
69324;DHT22;56470;47.350;8.718;2023-03-30T16:47:53;15.70;58.87
69324;DHT22;56470;47.350;8.718;2023-03-30T16:50:40;15.67;57.73
69324;DHT22;56470;47.350;8.718;2023-03-30T16:53:07;15.71;59.23
69324;DHT22;56470;47.350;8.718;2023-03-30T16:55:33;15.74;59.16
69324;DHT22;56470;47.350;8.718;2023-03-30T16:57:59;15.75;59.27
69324;DHT22;56470;47.350;8.718;2023-03-30T17:00:29;15.77;59.23
69324;DHT22;56470;47.350;8.718;2023-03-30T17:02:55;15.77;59.16
69324;DHT22;56470;47.350;8.718;2023-03-30T17:05:20;15.74;58.84
69324;DHT22;56470;47.350;8.718;2023-03-30T17:07:46;15.73;58.76
69324;DHT22;56470;47.350;8.718;2023-03-30T17:10:25;15.65;58.58
69324;DHT22;56470;47.350;8.718;2023-03-30T17:12:51;15.61;58.89
69324;DHT22;56470;47.350;8.718;2023-03-30T17:15:17;15.60;58.88
69324;DHT22;56470;47.350;8.718;2023-03-30T17:17:43;15.61;59.10
69324;DHT22;56470;47.350;8.718;2023-03-30T17:20:45;15.57;57.42
69324;DHT22;56470;47.350;8.718;2023-03-30T17:23:12;15.58;58.94
69324;DHT22;56470;47.350;8.718;2023-03-30T17:25:38;15.57;58.85
69324;DHT22;56470;47.350;8.718;2023-03-30T17:28:05;15.56;59.00
69324;DHT22;56470;47.350;8.718;2023-03-30T17:30:37;15.58;58.99
69324;DHT22;56470;47.350;8.718;2023-03-30T17:33:04;15.54;58.85
69324;DHT22;56470;47.350;8.718;2023-03-30T17:35:35;15.51;58.70
69324;DHT22;56470;47.350;8.718;2023-03-30T17:38:00;15.46;58.53
69324;DHT22;56470;47.350;8.718;2023-03-30T17:40:28;15.44;58.51